GCLP/LPA METAR and TAF weather

Enter ICAO airport designator
Station Type Date Time Source
GCLP METAR 2024/04/15 09:00 UTC NOAA

GCLP 150900Z 03012KT 9000 NSC 22/18 Q1017 NOSIG


Station Type Date Time Source
GCLP Decoded METAR 2024/04/15 09:00 UTC NOAA

Gran Canaria - Canary Islands, Spain (GCLP) 27-56N 015-23W 47M
Apr 15, 2024 - 05:00 AM EDT / 2024.04.15 0900 UTC
Wind: from the NNE (030 degrees) at 14 MPH (12 KT):0
Visibility: 5 mile(s):0
Temperature: 71 F (22 C)
Dew Point: 64 F (18 C)
Relative Humidity: 78%
Pressure (altimeter): 30.03 in. Hg (1017 hPa)
ob: GCLP 150900Z 03012KT 9000 NSC 22/18 Q1017 NOSIG
cycle: 9

Station Type Date Time Source
GCLP TAF 2024/04/15 09:45 UTC NOAA